Time,TemperatureF,DewpointF,PressureIn,WindDirection,WindDirectionDegrees,WindSpeedMPH,WindSpeedGustMPH,Humidity,HourlyPrecipIn,Conditions,Clouds,dailyrainin,SoftwareType,DateUTC
2013-08-31 00:01:00,76.5,70.9,29.65,SSE,157,1.7,-999.0,83,-99.99,,,0.00,Acu-Link.com,2013-08-31 04:01:00,
2013-08-31 00:16:00,76.8,70.9,29.66,SSW,202,1.1,-999.0,82,-99.99,,,0.00,Acu-Link.com,2013-08-31 04:16:00,
2013-08-31 00:32:00,76.3,70.7,29.65,SSE,157,1.7,-999.0,83,-99.99,,,0.00,Acu-Link.com,2013-08-31 04:32:00,
2013-08-31 00:47:00,75.9,70.7,29.64,ESE,112,2.2,-999.0,84,-99.99,,,0.00,Acu-Link.com,2013-08-31 04:47:00,
2013-08-31 01:02:00,75.6,70.4,29.65,SSW,202,0.0,-999.0,84,-99.99,,,0.00,Acu-Link.com,2013-08-31 05:02:00,
2013-08-31 01:18:00,75.0,70.5,29.66,SSW,202,0.0,-999.0,86,-99.99,,,0.00,Acu-Link.com,2013-08-31 05:18:00,
2013-08-31 01:33:00,75.4,70.9,29.66,South,180,1.7,-999.0,86,-99.99,,,0.00,Acu-Link.com,2013-08-31 05:33:00,
2013-08-31 01:48:00,75.4,70.9,29.66,SSE,157,2.2,-999.0,86,-99.99,,,0.00,Acu-Link.com,2013-08-31 05:48:00,
2013-08-31 02:03:00,75.2,71.1,29.66,SSW,202,0.0,-999.0,87,-99.99,,,0.00,Acu-Link.com,2013-08-31 06:03:00,
2013-08-31 02:18:00,75.0,71.2,29.65,SSW,202,0.0,-999.0,88,-99.99,,,0.00,Acu-Link.com,2013-08-31 06:18:00,
2013-08-31 02:34:00,75.2,71.4,29.65,SE,135,2.7,-999.0,88,-99.99,,,0.00,Acu-Link.com,2013-08-31 06:34:00,
2013-08-31 02:49:00,75.2,71.4,29.65,SE,135,2.7,-999.0,88,-99.99,,,0.00,Acu-Link.com,2013-08-31 06:49:00,
2013-08-31 03:04:00,75.2,71.4,29.65,South,180,1.7,-999.0,88,-99.99,,,0.00,Acu-Link.com,2013-08-31 07:04:00,
2013-08-31 03:20:00,74.8,71.7,29.65,SSW,202,2.2,-999.0,90,-99.99,,,0.00,Acu-Link.com,2013-08-31 07:20:00,
2013-08-31 03:35:00,75.2,72.1,29.65,SSE,157,3.2,-999.0,90,-99.99,,,0.00,Acu-Link.com,2013-08-31 07:35:00,
2013-08-31 03:50:00,75.2,72.1,29.64,South,180,3.2,-999.0,90,-99.99,,,0.00,Acu-Link.com,2013-08-31 07:50:00,
2013-08-31 04:06:00,74.8,71.7,29.64,WSW,247,1.1,-999.0,90,-99.99,,,0.00,Acu-Link.com,2013-08-31 08:06:00,
2013-08-31 04:22:00,74.8,71.7,29.64,SE,135,2.7,-999.0,90,-99.99,,,0.00,Acu-Link.com,2013-08-31 08:22:00,
2013-08-31 04:37:00,74.8,71.7,29.65,South,180,1.7,-999.0,90,-99.99,,,0.00,Acu-Link.com,2013-08-31 08:37:00,
2013-08-31 04:52:00,74.8,72.0,29.64,West,270,0.0,-999.0,91,-99.99,,,0.00,Acu-Link.com,2013-08-31 08:52:00,
2013-08-31 05:07:00,74.8,72.0,29.64,SSE,157,1.7,-999.0,91,-99.99,,,0.00,Acu-Link.com,2013-08-31 09:07:00,
2013-08-31 05:22:00,74.5,71.7,29.64,South,180,2.7,-999.0,91,-99.99,,,0.00,Acu-Link.com,2013-08-31 09:22:00,
2013-08-31 05:38:00,74.3,71.8,29.64,SSW,202,2.2,-999.0,92,-99.99,,,0.00,Acu-Link.com,2013-08-31 09:38:00,
2013-08-31 05:53:00,74.1,71.6,29.64,SW,225,2.7,-999.0,92,-99.99,,,0.00,Acu-Link.com,2013-08-31 09:53:00,
2013-08-31 06:08:00,73.9,71.7,29.65,West,270,2.2,-999.0,93,-99.99,,,0.00,Acu-Link.com,2013-08-31 10:08:00,
2013-08-31 06:23:00,73.8,71.6,29.66,SSW,202,1.1,-999.0,93,-99.99,,,0.00,Acu-Link.com,2013-08-31 10:23:00,
2013-08-31 06:39:00,74.1,71.9,29.66,WSW,247,2.7,-999.0,93,-99.99,,,0.00,Acu-Link.com,2013-08-31 10:39:00,
2013-08-31 06:54:00,75.2,72.1,29.66,West,270,1.7,-999.0,90,-99.99,,,0.00,Acu-Link.com,2013-08-31 10:54:00,
2013-08-31 07:09:00,75.9,72.1,29.67,NNW,337,3.2,-999.0,88,-99.99,,,0.00,Acu-Link.com,2013-08-31 11:09:00,
2013-08-31 07:24:00,75.9,72.1,29.66,WSW,247,1.1,-999.0,88,-99.99,,,0.00,Acu-Link.com,2013-08-31 11:24:00,
2013-08-31 07:40:00,75.9,72.1,29.67,SW,225,1.7,-999.0,88,-99.99,,,0.00,Acu-Link.com,2013-08-31 11:40:00,
2013-08-31 07:55:00,76.6,72.8,29.66,WSW,247,2.7,-999.0,88,-99.99,,,0.00,Acu-Link.com,2013-08-31 11:55:00,
2013-08-31 08:10:00,77.4,72.9,29.67,West,270,2.7,-999.0,86,-99.99,,,0.00,Acu-Link.com,2013-08-31 12:10:00,
2013-08-31 08:25:00,78.1,73.2,29.68,SW,225,4.2,-999.0,85,-99.99,,,0.00,Acu-Link.com,2013-08-31 12:25:00,
2013-08-31 08:40:00,78.8,73.5,29.68,West,270,5.3,-999.0,84,-99.99,,,0.00,Acu-Link.com,2013-08-31 12:40:00,
2013-08-31 08:56:00,78.3,73.4,29.68,West,270,4.2,-999.0,85,-99.99,,,0.00,Acu-Link.com,2013-08-31 12:56:00,
2013-08-31 09:11:00,77.2,73.4,29.68,WSW,247,1.1,-999.0,88,-99.99,,,0.00,Acu-Link.com,2013-08-31 13:11:00,
2013-08-31 09:26:00,75.7,73.2,29.70,WSW,247,3.2,-999.0,92,-99.99,,,0.01,Acu-Link.com,2013-08-31 13:26:00,
2013-08-31 09:42:00,70.7,67.9,29.74,West,270,12.5,-999.0,91,-99.99,,,0.07,Acu-Link.com,2013-08-31 13:42:00,
2013-08-31 09:57:00,68.5,66.7,29.73,WSW,247,4.2,-999.0,94,-99.99,,,0.32,Acu-Link.com,2013-08-31 13:57:00,
2013-08-31 10:12:00,68.2,67.6,29.75,West,270,4.7,-999.0,98,-99.99,,,0.56,Acu-Link.com,2013-08-31 14:12:00,
2013-08-31 10:27:00,68.7,68.1,29.72,SSE,157,4.2,-999.0,98,-99.99,,,0.89,Acu-Link.com,2013-08-31 14:27:00,
2013-08-31 10:42:00,69.1,67.9,29.71,ESE,112,2.7,-999.0,96,-99.99,,,0.89,Acu-Link.com,2013-08-31 14:42:00,
2013-08-31 10:57:00,68.9,68.6,29.74,NE,45,4.2,-999.0,99,-99.99,,,0.93,Acu-Link.com,2013-08-31 14:57:00,
2013-08-31 11:13:00,69.1,68.8,29.71,SE,135,3.7,-999.0,99,-99.99,,,1.25,Acu-Link.com,2013-08-31 15:13:00,
2013-08-31 11:28:00,69.1,67.9,29.72,SSE,157,3.2,-999.0,96,-99.99,,,1.26,Acu-Link.com,2013-08-31 15:28:00,
2013-08-31 11:43:00,70.0,69.1,29.71,SSE,157,0.0,-999.0,97,-99.99,,,1.26,Acu-Link.com,2013-08-31 15:43:00,
2013-08-31 11:59:00,71.1,70.2,29.70,SE,135,0.0,-999.0,97,-99.99,,,1.26,Acu-Link.com,2013-08-31 15:59:00,
2013-08-31 12:14:00,73.2,70.7,29.69,South,180,3.2,-999.0,92,-99.99,,,1.26,Acu-Link.com,2013-08-31 16:14:00,
2013-08-31 12:29:00,76.3,72.5,29.68,SSE,157,3.7,-999.0,88,-99.99,,,1.26,Acu-Link.com,2013-08-31 16:29:00,
2013-08-31 12:44:00,79.5,74.6,29.68,SSE,157,4.2,-999.0,85,-99.99,,,1.26,Acu-Link.com,2013-08-31 16:44:00,
2013-08-31 12:59:00,81.3,74.9,29.67,SSE,157,4.7,-999.0,81,-99.99,,,1.26,Acu-Link.com,2013-08-31 16:59:00,
2013-08-31 13:14:00,82.0,74.1,29.67,SSE,157,7.3,-999.0,77,-99.99,,,1.26,Acu-Link.com,2013-08-31 17:14:00,
2013-08-31 13:30:00,82.6,73.9,29.67,SSE,157,4.7,-999.0,75,-99.99,,,1.26,Acu-Link.com,2013-08-31 17:30:00,
2013-08-31 13:45:00,83.1,73.9,29.67,SSW,202,9.4,-999.0,74,-99.99,,,1.26,Acu-Link.com,2013-08-31 17:45:00,
2013-08-31 14:00:00,84.9,75.3,29.67,West,270,4.2,-999.0,73,-99.99,,,1.26,Acu-Link.com,2013-08-31 18:00:00,
2013-08-31 14:15:00,85.5,75.8,29.67,SSE,157,4.2,-999.0,73,-99.99,,,1.26,Acu-Link.com,2013-08-31 18:15:00,
2013-08-31 14:30:00,85.8,76.1,29.66,SSW,202,6.8,-999.0,73,-99.99,,,1.26,Acu-Link.com,2013-08-31 18:30:00,
2013-08-31 14:45:00,86.2,76.5,29.64,SSE,157,6.3,-999.0,73,-99.99,,,1.26,Acu-Link.com,2013-08-31 18:45:00,
2013-08-31 15:00:00,87.3,77.1,29.64,South,180,7.3,-999.0,72,-99.99,,,1.26,Acu-Link.com,2013-08-31 19:00:00,
2013-08-31 15:15:00,87.8,78.0,29.63,SW,225,4.2,-999.0,73,-99.99,,,1.26,Acu-Link.com,2013-08-31 19:15:00,
2013-08-31 15:30:00,87.4,78.5,29.62,West,270,2.2,-999.0,75,-99.99,,,1.26,Acu-Link.com,2013-08-31 19:30:00,
2013-08-31 15:46:00,88.9,78.7,29.62,SSE,157,6.8,-999.0,72,-99.99,,,1.26,Acu-Link.com,2013-08-31 19:46:00,
2013-08-31 16:01:00,87.6,78.3,29.61,SSE,157,4.2,-999.0,74,-99.99,,,1.26,Acu-Link.com,2013-08-31 20:01:00,
2013-08-31 16:16:00,86.4,77.9,29.60,East,90,2.2,-999.0,76,-99.99,,,1.26,Acu-Link.com,2013-08-31 20:16:00,
2013-08-31 16:32:00,85.8,77.7,29.56,SSE,157,3.2,-999.0,77,-99.99,,,1.26,Acu-Link.com,2013-08-31 20:32:00,
2013-08-31 16:47:00,83.8,74.2,29.61,South,180,4.2,-999.0,73,-99.99,,,1.26,Acu-Link.com,2013-08-31 20:47:00,
2013-08-31 17:02:00,78.1,73.6,29.65,WSW,247,5.3,-999.0,86,-99.99,,,1.27,Acu-Link.com,2013-08-31 21:02:00,
2013-08-31 17:17:00,70.9,68.8,29.66,West,270,5.3,-999.0,93,-99.99,,,1.36,Acu-Link.com,2013-08-31 21:17:00,
2013-08-31 17:32:00,68.2,64.8,29.64,West,270,5.3,-999.0,89,-99.99,,,1.52,Acu-Link.com,2013-08-31 21:32:00,
2013-08-31 17:47:00,67.6,65.5,29.63,ESE,112,2.7,-999.0,93,-99.99,,,1.62,Acu-Link.com,2013-08-31 21:47:00,
2013-08-31 18:02:00,68.0,66.5,29.62,SSE,157,2.7,-999.0,95,-99.99,,,1.62,Acu-Link.com,2013-08-31 22:02:00,
2013-08-31 18:18:00,68.2,67.6,29.62,NE,45,0.0,-999.0,98,-99.99,,,1.62,Acu-Link.com,2013-08-31 22:18:00,
2013-08-31 18:33:00,69.1,68.8,29.63,South,180,2.7,-999.0,99,-99.99,,,1.63,Acu-Link.com,2013-08-31 22:33:00,
2013-08-31 18:48:00,69.8,69.2,29.64,SSW,202,2.2,-999.0,98,-99.99,,,1.63,Acu-Link.com,2013-08-31 22:48:00,
2013-08-31 19:03:00,70.0,69.7,29.63,NE,45,2.7,-999.0,99,-99.99,,,1.64,Acu-Link.com,2013-08-31 23:03:00,
2013-08-31 19:19:00,70.3,70.0,29.64,NNW,337,3.2,-999.0,99,-99.99,,,1.64,Acu-Link.com,2013-08-31 23:19:00,
2013-08-31 19:34:00,69.8,68.0,29.65,ESE,112,4.2,-999.0,94,-99.99,,,1.64,Acu-Link.com,2013-08-31 23:34:00,
2013-08-31 19:49:00,69.4,68.2,29.65,NNE,22,2.7,-999.0,96,-99.99,,,1.64,Acu-Link.com,2013-08-31 23:49:00,
2013-08-31 20:04:00,69.4,68.2,29.64,NE,45,5.3,-999.0,96,-99.99,,,1.64,Acu-Link.com,2013-09-01 00:04:00,
2013-08-31 20:20:00,69.8,68.6,29.64,East,90,4.2,-999.0,96,-99.99,,,1.64,Acu-Link.com,2013-09-01 00:20:00,
2013-08-31 20:35:00,69.4,68.5,29.69,SSE,157,2.2,-999.0,97,-99.99,,,1.64,Acu-Link.com,2013-09-01 00:35:00,
2013-08-31 20:50:00,69.4,68.5,29.70,SE,135,2.2,-999.0,97,-99.99,,,1.64,Acu-Link.com,2013-09-01 00:50:00,
2013-08-31 21:05:00,69.4,68.8,29.70,SSW,202,0.0,-999.0,98,-99.99,,,1.64,Acu-Link.com,2013-09-01 01:05:00,
2013-08-31 21:20:00,69.3,68.7,29.71,SW,225,0.0,-999.0,98,-99.99,,,1.64,Acu-Link.com,2013-09-01 01:20:00,
2013-08-31 21:36:00,69.4,69.1,29.72,WSW,247,1.7,-999.0,99,-99.99,,,1.64,Acu-Link.com,2013-09-01 01:36:00,
2013-08-31 21:51:00,69.4,69.1,29.72,SW,225,1.7,-999.0,99,-99.99,,,1.64,Acu-Link.com,2013-09-01 01:51:00,
2013-08-31 22:06:00,69.4,69.1,29.72,SSW,202,1.7,-999.0,99,-99.99,,,1.68,Acu-Link.com,2013-09-01 02:06:00,
2013-08-31 22:22:00,69.4,69.1,29.71,West,270,2.2,-999.0,99,-99.99,,,1.71,Acu-Link.com,2013-09-01 02:22:00,
2013-08-31 22:37:00,69.4,69.1,29.70,SSE,157,2.7,-999.0,99,-99.99,,,1.73,Acu-Link.com,2013-09-01 02:37:00,
2013-08-31 22:52:00,69.3,69.0,29.68,SE,135,2.2,-999.0,99,-99.99,,,1.76,Acu-Link.com,2013-09-01 02:52:00,
2013-08-31 23:08:00,69.1,68.8,29.69,South,180,5.8,-999.0,99,-99.99,,,1.80,Acu-Link.com,2013-09-01 03:08:00,
2013-08-31 23:23:00,69.1,68.8,29.69,West,270,3.7,-999.0,99,-99.99,,,1.84,Acu-Link.com,2013-09-01 03:23:00,
2013-08-31 23:38:00,68.7,68.4,29.68,SSW,202,4.7,-999.0,99,-99.99,,,1.87,Acu-Link.com,2013-09-01 03:38:00,
2013-08-31 23:53:00,68.2,67.3,29.66,SSW,202,4.7,-999.0,97,-99.99,,,1.90,Acu-Link.com,2013-09-01 03:53:00,